Time;durP1;ratioP1;P1;durP2;ratioP2;P2;SDS_P1;SDS_P2;PMS_P1;PMS_P2;Temp;Humidity;BMP_temperature;BMP_pressure;BME280_temperature;BME280_humidity;BME280_pressure;Samples;Min_cycle;Max_cycle;Signal;HPM_P1;HPM_P2
2023/01/27 00:00:11;;;;;;;;;;;;;;;;;;5060524;28;20312;-80
2023/01/27 00:02:37;;;;;;;;;;;;;;;;;;5066419;28;19943;-81
2023/01/27 00:05:02;;;;;;;;;;;;;;;;;;5060454;28;19920;-81
2023/01/27 00:07:27;;;;;;;;;;;;;;;;;;5061161;28;20311;-81
2023/01/27 00:09:52;;;;;;;;;;;;;;;;;;5058685;28;20338;-81
2023/01/27 00:15:02;;;;;;;;;;;;;;;;;;5066096;28;19918;-80
2023/01/27 00:17:28;;;;;;;;;;;;;;;;;;5058164;28;19995;-80
2023/01/27 00:19:53;;;;;;;;;;;;;;;;;;5061533;28;20452;-80
2023/01/27 00:25:02;;;;;;;;;;;;;;;;;;5070474;28;19966;-80
2023/01/27 00:27:27;;;;;;;;;;;;;;;;;;5082790;28;19924;-79
2023/01/27 00:29:52;;;;;;;;;;;;;;;;;;5085187;28;20035;-79
2023/01/27 00:35:01;;;;;;;;;;;;;;;;;;5087153;28;19919;-79
2023/01/27 00:37:27;;;;;;;;;;;;;;;;;;5063605;28;19920;-79
2023/01/27 00:39:52;;;;;;;;;;;;;;;;;;5082093;28;19963;-79
2023/01/27 00:42:17;;;;;;;;;;;;;;;;;;5072111;28;19912;-79
2023/01/27 00:45:47;;;;;;;;;;;;;;;;;;5073161;28;20394;-79
2023/01/27 00:47:27;;;;;;;;;;;;;;;;;;5085825;28;19967;-80
2023/01/27 00:49:52;;;;;;;;;;;;;;;;;;5072554;28;20435;-80
2023/01/27 00:52:17;;;;;;;;;;;;;;;;;;5072775;28;19920;-81
2023/01/27 00:54:42;;;;;;;;;;;;;;;;;;5090786;28;19985;-80
2023/01/27 00:57:08;;;;;;;;;;;;;;;;;;5090335;28;19916;-81
2023/01/27 00:59:33;;;;;;;;;;;;;;;;;;5072898;28;19959;-80
2023/01/27 01:01:58;;;;;;;;;;;;;;;;;;5083432;28;20371;-80
2023/01/27 01:04:23;;;;;;;;;;;;;;;;;;5066794;28;19962;-80
2023/01/27 01:06:48;;;;;;;;;;;;;;;;;;5063767;28;19923;-79
2023/01/27 01:09:13;;;;;;;;;;;;;;;;;;5079647;28;19924;-79
2023/01/27 01:11:38;;;;;;;;;;;;;;;;;;5069050;28;19927;-79
2023/01/27 01:14:03;;;;;;;;;;;;;;;;;;5071858;28;19962;-79
2023/01/27 01:16:29;;;;;;;;;;;;;;;;;;5086314;28;19912;-81
2023/01/27 01:18:54;;;;;;;;;;;;;;;;;;5071417;28;20280;-80
2023/01/27 01:21:19;;;;;;;;;;;;;;;;;;5067274;28;20375;-81
2023/01/27 01:23:44;;;;;;;;;;;;;;;;;;5069738;28;19927;-80
2023/01/27 01:26:09;;;;;;;;;;;;;;;;;;5084534;28;20505;-80
2023/01/27 01:28:34;;;;;;;;;;;;;;;;;;5071747;28;19932;-80
2023/01/27 01:30:59;;;;;;;;;;;;;;;;;;5091207;28;19919;-80
2023/01/27 01:33:25;;;;;;;;;;;;;;;;;;5064629;28;20372;-80
2023/01/27 01:35:50;;;;;;;;;;;;;;;;;;5092249;28;19958;-80
2023/01/27 01:38:15;;;;;;;;;;;;;;;;;;5086147;28;20006;-80
2023/01/27 01:40:40;;;;;;;;;;;;;;;;;;5086526;28;20356;-79
2023/01/27 01:43:05;;;;;;;;;;;;;;;;;;5087462;28;20331;-79
2023/01/27 01:45:30;;;;;;;;;;;;;;;;;;5072020;28;19913;-79
2023/01/27 01:47:55;;;;;;;;;;;;;;;;;;5066253;28;19920;-79
2023/01/27 01:50:21;;;;;;;;;;;;;;;;;;5069809;28;19908;-80
2023/01/27 01:52:46;;;;;;;;;;;;;;;;;;5069040;28;20405;-80
2023/01/27 01:55:11;;;;;;;;;;;;;;;;;;5084530;28;19917;-79
2023/01/27 01:57:36;;;;;;;;;;;;;;;;;;5064082;28;19927;-80
2023/01/27 02:00:01;;;;;;;;;;;;;;;;;;5071416;28;20019;-79
2023/01/27 02:02:26;;;;;;;;;;;;;;;;;;5072170;28;20660;-81
2023/01/27 02:04:51;;;;;;;;;;;;;;;;;;5087460;28;19916;-80
2023/01/27 02:07:17;;;;;;;;;;;;;;;;;;5058780;28;19939;-80
2023/01/27 02:09:42;;;;;;;;;;;;;;;;;;5088183;28;20294;-80
2023/01/27 02:12:07;;;;;;;;;;;;;;;;;;5074294;28;19912;-80
2023/01/27 02:14:32;;;;;;;;;;;;;;;;;;5064971;28;20007;-80
2023/01/27 02:16:57;;;;;;;;;;;;;;;;;;5089014;28;19912;-79
2023/01/27 02:19:22;;;;;;;;;;;;;;;;;;5088417;28;19935;-79
2023/01/27 02:21:48;;;;;;;;;;;;;;;;;;5090337;28;19920;-79
2023/01/27 02:24:13;;;;;;;;;;;;;;;;;;5063938;28;19959;-79
2023/01/27 02:26:38;;;;;;;;;;;;;;;;;;5079613;28;20029;-80
2023/01/27 02:29:03;;;;;;;;;;;;;;;;;;5068390;28;20269;-80
2023/01/27 02:31:28;;;;;;;;;;;;;;;;;;5084939;28;20379;-81
2023/01/27 02:33:53;;;;;;;;;;;;;;;;;;5070376;28;20387;-79
2023/01/27 02:36:19;;;;;;;;;;;;;;;;;;5073359;28;20431;-79
2023/01/27 02:38:44;;;;;;;;;;;;;;;;;;5080301;28;19916;-81
2023/01/27 02:41:09;;;;;;;;;;;;;;;;;;5069135;28;19912;-80
2023/01/27 02:43:34;;;;;;;;;;;;;;;;;;5070429;28;19912;-81
2023/01/27 02:45:59;;;;;;;;;;;;;;;;;;5086996;28;20310;-79
2023/01/27 02:48:24;;;;;;;;;;;;;;;;;;5066631;28;20368;-79
2023/01/27 02:50:49;;;;;;;;;;;;;;;;;;5083567;28;20364;-80
2023/01/27 02:53:15;;;;;;;;;;;;;;;;;;5082264;28;20364;-79
2023/01/27 02:55:40;;;;;;;;;;;;;;;;;;5062647;28;19912;-80
2023/01/27 02:58:05;;;;;;;;;;;;;;;;;;5066938;28;19916;-80
2023/01/27 03:00:30;;;;;;;;;;;;;;;;;;5085357;28;20431;-79
2023/01/27 03:02:55;;;;;;;;;;;;;;;;;;5085997;28;19912;-80
2023/01/27 03:05:20;;;;;;;;;;;;;;;;;;5071665;28;19912;-80
2023/01/27 03:07:46;;;;;;;;;;;;;;;;;;5067502;28;20378;-79
2023/01/27 03:10:11;;;;;;;;;;;;;;;;;;5089446;28;20422;-79
2023/01/27 03:12:36;;;;;;;;;;;;;;;;;;5090460;28;19915;-79
2023/01/27 03:20:29;;;;;;;;;;;;;;;;;;5090203;28;19919;-79
2023/01/27 03:22:55;;;;;;;;;;;;;;;;;;5084536;28;19908;-80
2023/01/27 03:25:20;;;;;;;;;;;;;;;;;;5064577;28;19961;-80
2023/01/27 03:27:45;;;;;;;;;;;;;;;;;;5091246;28;20027;-80
2023/01/27 03:30:10;;;;;;;;;;;;;;;;;;5069099;28;19977;-80
2023/01/27 03:32:35;;;;;;;;;;;;;;;;;;5064606;28;20061;-80
2023/01/27 03:35:01;;;;;;;;;;;;;;;;;;5086878;28;19912;-80
2023/01/27 03:48:21;;;;;;;;;;;;;;;;;;5085631;28;19923;-80
2023/01/27 03:50:52;;;;;;;;;;;;;;;;;;5070005;28;21425;-80
2023/01/27 03:53:17;;;;;;;;;;;;;;;;;;5069290;28;19916;-80
2023/01/27 03:55:42;;;;;;;;;;;;;;;;;;5087795;28;20010;-80
2023/01/27 03:58:17;;;;;;;;;;;;;;;;;;5060630;28;19912;-79
2023/01/27 04:00:42;;;;;;;;;;;;;;;;;;5064200;28;19912;-80
2023/01/27 04:08:35;;;;;;;;;;;;;;;;;;5076925;28;19928;-80
2023/01/27 04:13:44;;;;;;;;;;;;;;;;;;5086951;28;19961;-80
2023/01/27 04:16:09;;;;;;;;;;;;;;;;;;5087241;28;19912;-79
2023/01/27 04:18:36;;;;;;;;;;;;;;;;;;5089167;28;19916;-79
2023/01/27 04:21:01;;;;;;;;;;;;;;;;;;5067303;28;20019;-79
2023/01/27 04:23:27;;;;;;;;;;;;;;;;;;5086708;28;19916;-79
2023/01/27 04:25:53;;;;;;;;;;;;;;;;;;5091540;28;20379;-79
2023/01/27 04:28:18;;;;;;;;;;;;;;;;;;5072032;28;20026;-80
2023/01/27 04:30:43;;;;;;;;;;;;;;;;;;5061084;28;20007;-80
2023/01/27 04:33:09;;;;;;;;;;;;;;;;;;5073658;28;19916;-80
2023/01/27 04:35:34;;;;;;;;;;;;;;;;;;5085102;28;20359;-80
2023/01/27 04:37:59;;;;;;;;;;;;;;;;;;5067572;28;20193;-79
2023/01/27 04:40:24;;;;;;;;;;;;;;;;;;5069497;28;19912;-80
2023/01/27 04:42:49;;;;;;;;;;;;;;;;;;5092424;28;19974;-80
2023/01/27 04:45:14;;;;;;;;;;;;;;;;;;5082356;28;20334;-81
2023/01/27 04:47:40;;;;;;;;;;;;;;;;;;5084720;28;19993;-79
2023/01/27 04:50:05;;;;;;;;;;;;;;;;;;5065801;28;19962;-80
2023/01/27 04:52:30;;;;;;;;;;;;;;;;;;5071296;28;19912;-80
2023/01/27 04:54:55;;;;;;;;;;;;;;;;;;5089573;28;19919;-80
2023/01/27 04:57:20;;;;;;;;;;;;;;;;;;5072955;28;19941;-80
2023/01/27 04:59:45;;;;;;;;;;;;;;;;;;5089994;28;19919;-80
2023/01/27 05:02:10;;;;;;;;;;;;;;;;;;5068465;28;19909;-80
2023/01/27 05:04:35;;;;;;;;;;;;;;;;;;5072974;28;19993;-79
2023/01/27 05:07:01;;;;;;;;;;;;;;;;;;5069527;28;19920;-80
2023/01/27 05:09:26;;;;;;;;;;;;;;;;;;5083375;28;19923;-80
2023/01/27 05:11:51;;;;;;;;;;;;;;;;;;5088553;28;19963;-80
2023/01/27 05:14:16;;;;;;;;;;;;;;;;;;5073743;28;19912;-81
2023/01/27 05:16:41;;;;;;;;;;;;;;;;;;5085405;28;19920;-80
2023/01/27 05:19:07;;;;;;;;;;;;;;;;;;5068449;28;19919;-80
2023/01/27 05:21:32;;;;;;;;;;;;;;;;;;5069275;28;19920;-81
2023/01/27 05:23:57;;;;;;;;;;;;;;;;;;5069803;28;19962;-81
2023/01/27 05:26:22;;;;;;;;;;;;;;;;;;5063871;28;19948;-80
2023/01/27 05:28:47;;;;;;;;;;;;;;;;;;5068870;28;21620;-80
2023/01/27 05:31:12;;;;;;;;;;;;;;;;;;5061881;28;19923;-80
2023/01/27 05:33:37;;;;;;;;;;;;;;;;;;5060656;28;19962;-81
2023/01/27 05:36:03;;;;;;;;;;;;;;;;;;5062581;28;20269;-80
2023/01/27 05:38:28;;;;;;;;;;;;;;;;;;5057512;28;19916;-82
2023/01/27 05:40:53;;;;;;;;;;;;;;;;;;5063026;28;19927;-75
2023/01/27 05:43:18;;;;;;;;;;;;;;;;;;5062958;28;19913;-80
2023/01/27 05:45:43;;;;;;;;;;;;;;;;;;5070681;28;19916;-79
2023/01/27 05:48:08;;;;;;;;;;;;;;;;;;5062684;28;20008;-80
2023/01/27 05:50:33;;;;;;;;;;;;;;;;;;5063379;28;20425;-86
2023/01/27 05:52:59;;;;;;;;;;;;;;;;;;5063330;28;19978;-80
2023/01/27 05:55:24;;;;;;;;;;;;;;;;;;5062689;28;19916;-77
2023/01/27 05:57:49;;;;;;;;;;;;;;;;;;5062788;28;19928;-76
2023/01/27 06:00:14;;;;;;;;;;;;;;;;;;5062700;28;19916;-77
2023/01/27 06:02:39;;;;;;;;;;;;;;;;;;5060834;28;20338;-78
2023/01/27 06:05:04;;;;;;;;;;;;;;;;;;5063744;28;19999;-78
2023/01/27 06:07:30;;;;;;;;;;;;;;;;;;5061769;28;20361;-78
2023/01/27 06:09:55;;;;;;;;;;;;;;;;;;5062066;28;19913;-77
2023/01/27 06:12:20;;;;;;;;;;;;;;;;;;5060922;28;19956;-80
2023/01/27 06:14:45;;;;;;;;;;;;;;;;;;5060291;28;20434;-78
2023/01/27 06:17:10;;;;;;;;;;;;;;;;;;5065032;28;20830;-76
2023/01/27 06:19:35;;;;;;;;;;;;;;;;;;5063126;28;19965;-76
2023/01/27 06:22:01;;;;;;;;;;;;;;;;;;5064534;28;19983;-76
2023/01/27 06:24:27;;;;;;;;;;;;;;;;;;5067584;28;19916;-78
2023/01/27 06:26:52;;;;;;;;;;;;;;;;;;5077886;28;19920;-78
2023/01/27 06:29:17;;;;;;;;;;;;;;;;;;5087152;28;19919;-76
2023/01/27 06:31:42;;;;;;;;;;;;;;;;;;5090403;28;20062;-76
2023/01/27 06:34:07;;;;;;;;;;;;;;;;;;5089429;28;19923;-77
2023/01/27 06:36:33;;;;;;;;;;;;;;;;;;5081908;28;20010;-77
2023/01/27 06:38:58;;;;;;;;;;;;;;;;;;5079283;28;19917;-76
2023/01/27 06:41:23;;;;;;;;;;;;;;;;;;5082635;28;19920;-76
2023/01/27 06:43:48;;;;;;;;;;;;;;;;;;5088443;28;19985;-77
2023/01/27 06:46:14;;;;;;;;;;;;;;;;;;5086743;28;20871;-76
2023/01/27 06:48:39;;;;;;;;;;;;;;;;;;5084622;28;19967;-78
2023/01/27 06:51:04;;;;;;;;;;;;;;;;;;5064795;28;19912;-76
2023/01/27 06:53:30;;;;;;;;;;;;;;;;;;5088506;28;19954;-76
2023/01/27 06:55:55;;;;;;;;;;;;;;;;;;5085146;28;19916;-76
2023/01/27 06:58:20;;;;;;;;;;;;;;;;;;5070950;28;19912;-76
2023/01/27 07:00:46;;;;;;;;;;;;;;;;;;5091108;28;19955;-77
2023/01/27 07:03:12;;;;;;;;;;;;;;;;;;5064259;28;20078;-76
2023/01/27 07:05:37;;;;;;;;;;;;;;;;;;5091257;28;20364;-76
2023/01/27 07:08:02;;;;;;;;;;;;;;;;;;5083243;28;20347;-77
2023/01/27 07:10:27;;;;;;;;;;;;;;;;;;5062071;28;20318;-77
2023/01/27 07:12:52;;;;;;;;;;;;;;;;;;5068639;28;20427;-77
2023/01/27 07:15:17;;;;;;;;;;;;;;;;;;5062583;28;19919;-78
2023/01/27 07:17:42;;;;;;;;;;;;;;;;;;5071022;28;19931;-78
2023/01/27 07:20:08;;;;;;;;;;;;;;;;;;5074402;28;20360;-76
2023/01/27 07:22:33;;;;;;;;;;;;;;;;;;5074537;28;19908;-77
2023/01/27 07:24:58;;;;;;;;;;;;;;;;;;5084606;28;19909;-76
2023/01/27 07:27:24;;;;;;;;;;;;;;;;;;5072351;28;19920;-76
2023/01/27 07:29:49;;;;;;;;;;;;;;;;;;5071110;28;19913;-76
2023/01/27 07:32:14;;;;;;;;;;;;;;;;;;5091522;28;19974;-79
2023/01/27 07:34:39;;;;;;;;;;;;;;;;;;5091065;28;20367;-77
2023/01/27 07:37:05;;;;;;;;;;;;;;;;;;5071589;28;20369;-76
2023/01/27 07:39:30;;;;;;;;;;;;;;;;;;5088629;28;19919;-76
2023/01/27 07:41:56;;;;;;;;;;;;;;;;;;5091062;28;20313;-77
2023/01/27 07:44:21;;;;;;;;;;;;;;;;;;5073748;28;19912;-76
2023/01/27 07:46:46;;;;;;;;;;;;;;;;;;5091830;28;19919;-76
2023/01/27 07:49:11;;;;;;;;;;;;;;;;;;5069704;28;20364;-76
2023/01/27 07:51:36;;;;;;;;;;;;;;;;;;5064618;28;19912;-77
2023/01/27 07:54:02;;;;;;;;;;;;;;;;;;5091613;28;20073;-76
2023/01/27 07:56:27;;;;;;;;;;;;;;;;;;5085591;28;19916;-77
2023/01/27 07:58:52;;;;;;;;;;;;;;;;;;5091543;28;20330;-76
2023/01/27 08:01:17;;;;;;;;;;;;;;;;;;5071804;28;19916;-76
2023/01/27 08:03:42;;;;;;;;;;;;;;;;;;5053402;28;19913;-76
2023/01/27 08:06:07;;;;;;;;;;;;;;;;;;5091513;28;19918;-77
2023/01/27 08:08:32;;;;;;;;;;;;;;;;;;5064855;28;19920;-77
2023/01/27 08:10:58;;;;;;;;;;;;;;;;;;5067362;28;19912;-76
2023/01/27 08:13:23;;;;;;;;;;;;;;;;;;5073254;28;19916;-77
2023/01/27 08:15:48;;;;;;;;;;;;;;;;;;5088972;28;20276;-76
2023/01/27 08:18:13;;;;;;;;;;;;;;;;;;5079687;28;19962;-76
2023/01/27 08:20:38;;;;;;;;;;;;;;;;;;5074259;28;19934;-76
2023/01/27 08:23:03;;;;;;;;;;;;;;;;;;5072210;28;19919;-77
2023/01/27 08:25:28;;;;;;;;;;;;;;;;;;5091139;28;19912;-77
2023/01/27 08:27:54;;;;;;;;;;;;;;;;;;5069336;28;19924;-77
2023/01/27 08:30:19;;;;;;;;;;;;;;;;;;5071741;28;19909;-77
2023/01/27 08:32:44;;;;;;;;;;;;;;;;;;5087841;28;19919;-77
2023/01/27 08:35:09;;;;;;;;;;;;;;;;;;5089303;28;19916;-77
2023/01/27 08:37:34;;;;;;;;;;;;;;;;;;5069353;28;20007;-76
2023/01/27 08:40:00;;;;;;;;;;;;;;;;;;5087233;28;19908;-76
2023/01/27 08:42:25;;;;;;;;;;;;;;;;;;5089268;28;20478;-77
2023/01/27 08:44:50;;;;;;;;;;;;;;;;;;5072035;28;19954;-77
2023/01/27 08:47:15;;;;;;;;;;;;;;;;;;5073050;28;19923;-77
2023/01/27 08:49:40;;;;;;;;;;;;;;;;;;5089711;28;20014;-76
2023/01/27 08:52:05;;;;;;;;;;;;;;;;;;5060470;28;19915;-76
2023/01/27 08:54:30;;;;;;;;;;;;;;;;;;5068161;28;19951;-76
2023/01/27 08:56:56;;;;;;;;;;;;;;;;;;5090003;28;19961;-77
2023/01/27 08:59:21;;;;;;;;;;;;;;;;;;5090048;28;19919;-77
2023/01/27 09:01:46;;;;;;;;;;;;;;;;;;5089349;28;19912;-76
2023/01/27 09:04:11;;;;;;;;;;;;;;;;;;5093594;28;19915;-76
2023/01/27 09:06:36;;;;;;;;;;;;;;;;;;5077262;28;19909;-75
2023/01/27 09:09:07;;;;;;;;;;;;;;;;;;5073037;28;19920;-76
2023/01/27 09:11:33;;;;;;;;;;;;;;;;;;5059574;28;19912;-76
2023/01/27 09:13:58;;;;;;;;;;;;;;;;;;5095271;28;19969;-77
2023/01/27 09:16:23;;;;;;;;;;;;;;;;;;5095069;28;19943;-77
2023/01/27 09:18:48;;;;;;;;;;;;;;;;;;5076411;28;19931;-77
2023/01/27 09:21:13;;;;;;;;;;;;;;;;;;5075523;28;20269;-77
2023/01/27 09:23:38;;;;;;;;;;;;;;;;;;5076257;28;19995;-75
2023/01/27 09:26:03;;;;;;;;;;;;;;;;;;5076123;28;19919;-76
2023/01/27 09:28:28;;;;;;;;;;;;;;;;;;5087448;28;19927;-75
2023/01/27 09:30:54;;;;;;;;;;;;;;;;;;5080688;28;19916;-77
2023/01/27 09:33:19;;;;;;;;;;;;;;;;;;5089059;28;21865;-77
2023/01/27 09:35:44;;;;;;;;;;;;;;;;;;5084648;28;19916;-77
2023/01/27 09:38:09;;;;;;;;;;;;;;;;;;5072618;28;19965;-77
2023/01/27 09:40:34;;;;;;;;;;;;;;;;;;5094416;28;20530;-76
2023/01/27 09:42:59;;;;;;;;;;;;;;;;;;5092947;28;19935;-77
2023/01/27 09:45:24;;;;;;;;;;;;;;;;;;5091042;28;19912;-77
2023/01/27 09:47:49;;;;;;;;;;;;;;;;;;5074372;28;19963;-77
2023/01/27 09:50:15;;;;;;;;;;;;;;;;;;5093241;28;19908;-77
2023/01/27 09:52:40;;;;;;;;;;;;;;;;;;5093949;28;20368;-77
2023/01/27 09:55:05;;;;;;;;;;;;;;;;;;5074012;28;20288;-76
2023/01/27 09:57:30;;;;;;;;;;;;;;;;;;5090132;28;19918;-77
2023/01/27 09:59:55;;;;;;;;;;;;;;;;;;5093967;28;19995;-76
2023/01/27 10:02:21;;;;;;;;;;;;;;;;;;5092455;28;19970;-78
2023/01/27 10:04:46;;;;;;;;;;;;;;;;;;5089260;28;20035;-77
2023/01/27 10:07:11;;;;;;;;;;;;;;;;;;5087002;28;19923;-76
2023/01/27 10:09:38;;;;;;;;;;;;;;;;;;5064810;28;20276;-76
2023/01/27 10:12:03;;;;;;;;;;;;;;;;;;5087405;28;19959;-77
2023/01/27 10:14:28;;;;;;;;;;;;;;;;;;5088474;28;20425;-76
2023/01/27 10:16:53;;;;;;;;;;;;;;;;;;5089480;28;20383;-76
2023/01/27 10:19:18;;;;;;;;;;;;;;;;;;5073909;28;20374;-75
2023/01/27 10:21:44;;;;;;;;;;;;;;;;;;5091914;28;20375;-78
2023/01/27 10:24:09;;;;;;;;;;;;;;;;;;5069807;28;19919;-77
2023/01/27 10:26:34;;;;;;;;;;;;;;;;;;5073719;28;19920;-80
2023/01/27 10:28:59;;;;;;;;;;;;;;;;;;5071338;28;19975;-80
2023/01/27 10:31:25;;;;;;;;;;;;;;;;;;5089729;28;19912;-81
2023/01/27 10:33:50;;;;;;;;;;;;;;;;;;5072457;28;19912;-79
2023/01/27 10:36:16;;;;;;;;;;;;;;;;;;5090061;28;19912;-79
2023/01/27 10:38:41;;;;;;;;;;;;;;;;;;5063948;28;20280;-79
2023/01/27 10:41:06;;;;;;;;;;;;;;;;;;5070478;28;19971;-76
2023/01/27 10:43:31;;;;;;;;;;;;;;;;;;5065700;28;19913;-77
2023/01/27 10:45:56;;;;;;;;;;;;;;;;;;5081846;28;20003;-83
2023/01/27 10:48:21;;;;;;;;;;;;;;;;;;5054733;28;19958;-81
2023/01/27 10:50:46;;;;;;;;;;;;;;;;;;5073699;28;19912;-79
2023/01/27 10:53:12;;;;;;;;;;;;;;;;;;5073923;28;19920;-77
2023/01/27 10:55:37;;;;;;;;;;;;;;;;;;5091726;28;19919;-78
2023/01/27 10:58:02;;;;;;;;;;;;;;;;;;5073036;28;19912;-77
2023/01/27 11:00:27;;;;;;;;;;;;;;;;;;5088510;28;19912;-78
2023/01/27 11:02:52;;;;;;;;;;;;;;;;;;5070497;28;20003;-78
2023/01/27 11:05:17;;;;;;;;;;;;;;;;;;5092526;28;19904;-79
2023/01/27 11:07:43;;;;;;;;;;;;;;;;;;5070282;28;19942;-78
2023/01/27 11:10:08;;;;;;;;;;;;;;;;;;5073675;28;20394;-78
2023/01/27 11:12:33;;;;;;;;;;;;;;;;;;5072283;28;20380;-78
2023/01/27 11:14:58;;;;;;;;;;;;;;;;;;5065411;28;20323;-78
2023/01/27 11:17:23;;;;;;;;;;;;;;;;;;5087686;28;20356;-77
2023/01/27 11:19:49;;;;;;;;;;;;;;;;;;5082867;28;19959;-78
2023/01/27 11:22:14;;;;;;;;;;;;;;;;;;5070599;28;19915;-79
2023/01/27 11:24:39;;;;;;;;;;;;;;;;;;5073251;28;19919;-78
2023/01/27 11:27:04;;;;;;;;;;;;;;;;;;5072534;28;20414;-79
2023/01/27 11:29:29;;;;;;;;;;;;;;;;;;5052120;28;20019;-78
2023/01/27 11:31:54;;;;;;;;;;;;;;;;;;5052931;28;20369;-78
2023/01/27 11:34:19;;;;;;;;;;;;;;;;;;5066952;28;19916;-79
2023/01/27 11:36:45;;;;;;;;;;;;;;;;;;5052543;28;19920;-79
2023/01/27 11:39:10;;;;;;;;;;;;;;;;;;5057225;28;19913;-79
2023/01/27 11:41:35;;;;;;;;;;;;;;;;;;5069840;28;19923;-78
2023/01/27 11:44:00;;;;;;;;;;;;;;;;;;5067938;28;19916;-79
2023/01/27 11:46:26;;;;;;;;;;;;;;;;;;5041540;28;20019;-78
2023/01/27 11:48:51;;;;;;;;;;;;;;;;;;5052491;28;19916;-78
2023/01/27 11:51:17;;;;;;;;;;;;;;;;;;5068187;28;20292;-80
2023/01/27 11:53:42;;;;;;;;;;;;;;;;;;5053266;28;20387;-78
2023/01/27 11:56:07;;;;;;;;;;;;;;;;;;5037718;28;20000;-78
2023/01/27 11:58:32;;;;;;;;;;;;;;;;;;5070876;28;19916;-80
2023/01/27 12:00:58;;;;;;;;;;;;;;;;;;5051992;28;20356;-78
2023/01/27 12:03:23;;;;;;;;;;;;;;;;;;5069690;28;19912;-78
2023/01/27 12:05:48;;;;;;;;;;;;;;;;;;5068964;28;19912;-78
2023/01/27 12:08:13;;;;;;;;;;;;;;;;;;5065957;28;20030;-79
2023/01/27 12:10:41;;;;;;;;;;;;;;;;;;5070307;28;20004;-80
2023/01/27 12:13:06;;;;;;;;;;;;;;;;;;5052225;28;19916;-80
2023/01/27 12:15:31;;;;;;;;;;;;;;;;;;5068119;28;19913;-80
2023/01/27 12:17:57;;;;;;;;;;;;;;;;;;5049486;28;20321;-79
2023/01/27 12:20:22;;;;;;;;;;;;;;;;;;5045141;28;20397;-79
2023/01/27 12:22:47;;;;;;;;;;;;;;;;;;5070443;28;19955;-79
2023/01/27 12:25:12;;;;;;;;;;;;;;;;;;5052136;28;20469;-80
2023/01/27 12:27:37;;;;;;;;;;;;;;;;;;5070060;28;20386;-80
2023/01/27 12:30:02;;;;;;;;;;;;;;;;;;5069831;28;20423;-80
2023/01/27 12:32:27;;;;;;;;;;;;;;;;;;5051862;28;20265;-79
2023/01/27 12:34:56;;;;;;;;;;;;;;;;;;5052764;28;19946;-79
2023/01/27 12:37:21;;;;;;;;;;;;;;;;;;5067837;28;19917;-80
2023/01/27 12:39:46;;;;;;;;;;;;;;;;;;5056700;28;19913;-79
2023/01/27 12:42:11;;;;;;;;;;;;;;;;;;5053604;28;20037;-78
2023/01/27 12:44:36;;;;;;;;;;;;;;;;;;5070080;28;19919;-79
2023/01/27 12:47:02;;;;;;;;;;;;;;;;;;5072729;28;19962;-78
2023/01/27 12:49:27;;;;;;;;;;;;;;;;;;5070111;28;19920;-80
2023/01/27 12:51:52;;;;;;;;;;;;;;;;;;5074513;28;19992;-81
2023/01/27 12:54:17;;;;;;;;;;;;;;;;;;5070602;28;19940;-78
2023/01/27 12:56:42;;;;;;;;;;;;;;;;;;5051264;28;19974;-78
2023/01/27 12:59:07;;;;;;;;;;;;;;;;;;5073384;28;19974;-79
2023/01/27 13:01:33;;;;;;;;;;;;;;;;;;5071086;28;19930;-79
2023/01/27 13:03:58;;;;;;;;;;;;;;;;;;5052796;28;20352;-79
2023/01/27 13:06:23;;;;;;;;;;;;;;;;;;5071933;28;19916;-79
2023/01/27 13:08:49;;;;;;;;;;;;;;;;;;5064946;28;19920;-79
2023/01/27 13:11:14;;;;;;;;;;;;;;;;;;5046420;28;19920;-79
2023/01/27 13:13:39;;;;;;;;;;;;;;;;;;5054351;28;20003;-79
2023/01/27 13:16:04;;;;;;;;;;;;;;;;;;5050289;28;20395;-79
2023/01/27 13:18:30;;;;;;;;;;;;;;;;;;5066082;28;19921;-80
2023/01/27 13:20:55;;;;;;;;;;;;;;;;;;5049779;28;19962;-79
2023/01/27 13:23:20;;;;;;;;;;;;;;;;;;5062001;28;19924;-78
2023/01/27 13:25:45;;;;;;;;;;;;;;;;;;5069740;28;19943;-80
2023/01/27 13:28:10;;;;;;;;;;;;;;;;;;5075372;28;19920;-80
2023/01/27 13:30:35;;;;;;;;;;;;;;;;;;5094847;28;19908;-80
2023/01/27 13:33:01;;;;;;;;;;;;;;;;;;5094572;28;20286;-79
2023/01/27 13:35:26;;;;;;;;;;;;;;;;;;5075963;28;20273;-79
2023/01/27 13:37:51;;;;;;;;;;;;;;;;;;5072905;28;19913;-79
2023/01/27 13:40:16;;;;;;;;;;;;;;;;;;5076512;28;19938;-80
2023/01/27 13:42:41;;;;;;;;;;;;;;;;;;5076052;28;20457;-81
2023/01/27 13:45:06;;;;;;;;;;;;;;;;;;5073616;28;19943;-81
2023/01/27 13:47:32;;;;;;;;;;;;;;;;;;5072844;28;20288;-80
2023/01/27 13:49:57;;;;;;;;;;;;;;;;;;5075508;28;20350;-80
2023/01/27 13:52:22;;;;;;;;;;;;;;;;;;5076803;28;20352;-80
2023/01/27 13:54:47;;;;;;;;;;;;;;;;;;5074482;28;19965;-79
2023/01/27 13:57:12;;;;;;;;;;;;;;;;;;5073966;28;19919;-81
2023/01/27 13:59:37;;;;;;;;;;;;;;;;;;5076279;28;19912;-80
2023/01/27 14:02:03;;;;;;;;;;;;;;;;;;5087441;28;19955;-81
2023/01/27 14:04:28;;;;;;;;;;;;;;;;;;5090384;28;19912;-80
2023/01/27 14:06:53;;;;;;;;;;;;;;;;;;5068854;28;20022;-81
2023/01/27 14:09:18;;;;;;;;;;;;;;;;;;5079506;28;19917;-79
2023/01/27 14:11:43;;;;;;;;;;;;;;;;;;5071617;28;19986;-79
2023/01/27 14:14:08;;;;;;;;;;;;;;;;;;5067339;28;20386;-80
2023/01/27 14:16:33;;;;;;;;;;;;;;;;;;5089490;28;19915;-80
2023/01/27 14:18:59;;;;;;;;;;;;;;;;;;5090348;28;19920;-80
2023/01/27 14:21:24;;;;;;;;;;;;;;;;;;5088958;28;19920;-80
2023/01/27 14:23:49;;;;;;;;;;;;;;;;;;5090461;28;19912;-80
2023/01/27 14:26:14;;;;;;;;;;;;;;;;;;5090841;28;20298;-80
2023/01/27 14:28:39;;;;;;;;;;;;;;;;;;5085790;28;19975;-78
2023/01/27 14:31:04;;;;;;;;;;;;;;;;;;5088053;28;19923;-80
2023/01/27 14:33:29;;;;;;;;;;;;;;;;;;5064998;28;19980;-81
2023/01/27 14:35:54;;;;;;;;;;;;;;;;;;5072246;28;19923;-81
2023/01/27 14:38:20;;;;;;;;;;;;;;;;;;5063839;28;19912;-79
2023/01/27 14:40:45;;;;;;;;;;;;;;;;;;5069838;28;19974;-79
2023/01/27 14:43:10;;;;;;;;;;;;;;;;;;5083085;28;20276;-79
2023/01/27 14:45:35;;;;;;;;;;;;;;;;;;5084024;28;20269;-79
2023/01/27 14:48:01;;;;;;;;;;;;;;;;;;5083048;28;20288;-79
2023/01/27 14:50:26;;;;;;;;;;;;;;;;;;5084366;28;19916;-80
2023/01/27 14:52:51;;;;;;;;;;;;;;;;;;5070446;28;20360;-79
2023/01/27 14:55:18;;;;;;;;;;;;;;;;;;5067898;28;19923;-82
2023/01/27 14:57:44;;;;;;;;;;;;;;;;;;5087110;28;19991;-80
2023/01/27 15:00:09;;;;;;;;;;;;;;;;;;5063513;28;19998;-79
2023/01/27 15:02:34;;;;;;;;;;;;;;;;;;5065898;28;19924;-80
2023/01/27 15:04:59;;;;;;;;;;;;;;;;;;5068929;28;19991;-81
2023/01/27 15:07:24;;;;;;;;;;;;;;;;;;5064489;28;19920;-77
2023/01/27 15:09:49;;;;;;;;;;;;;;;;;;5083092;28;20006;-80
2023/01/27 15:12:15;;;;;;;;;;;;;;;;;;5064721;28;19916;-80
2023/01/27 15:14:41;;;;;;;;;;;;;;;;;;5082246;28;20282;-80
2023/01/27 15:17:06;;;;;;;;;;;;;;;;;;5066247;28;20360;-81
2023/01/27 15:19:31;;;;;;;;;;;;;;;;;;5070790;28;19935;-81
2023/01/27 15:21:56;;;;;;;;;;;;;;;;;;5068210;28;19916;-83
2023/01/27 15:24:24;;;;;;;;;;;;;;;;;;5087089;28;19953;-81
2023/01/27 15:26:49;;;;;;;;;;;;;;;;;;5090149;28;19927;-79
2023/01/27 15:29:16;;;;;;;;;;;;;;;;;;5088186;28;20456;-80
2023/01/27 15:31:41;;;;;;;;;;;;;;;;;;5089336;28;20315;-81
2023/01/27 15:34:07;;;;;;;;;;;;;;;;;;5072972;28;19917;-81
2023/01/27 15:36:32;;;;;;;;;;;;;;;;;;5057798;28;19916;-80
2023/01/27 15:38:57;;;;;;;;;;;;;;;;;;5083329;28;19916;-80
2023/01/27 15:41:22;;;;;;;;;;;;;;;;;;5089519;28;20142;-80
2023/01/27 15:43:47;;;;;;;;;;;;;;;;;;5085420;28;19929;-80
2023/01/27 15:46:12;;;;;;;;;;;;;;;;;;5070259;28;20010;-79
2023/01/27 15:48:37;;;;;;;;;;;;;;;;;;5067725;28;20288;-80
2023/01/27 15:51:03;;;;;;;;;;;;;;;;;;5064552;28;20283;-80
2023/01/27 15:53:28;;;;;;;;;;;;;;;;;;5068797;28;19931;-78
2023/01/27 15:55:53;;;;;;;;;;;;;;;;;;5097072;28;19916;-79
2023/01/27 15:58:18;;;;;;;;;;;;;;;;;;5067709;28;19965;-79
2023/01/27 16:00:43;;;;;;;;;;;;;;;;;;5072195;28;19924;-81
2023/01/27 16:03:08;;;;;;;;;;;;;;;;;;5089960;28;19916;-83
2023/01/27 16:05:34;;;;;;;;;;;;;;;;;;5070812;28;19916;-80
2023/01/27 16:07:59;;;;;;;;;;;;;;;;;;5065251;28;20005;-80
2023/01/27 16:10:24;;;;;;;;;;;;;;;;;;5082232;28;19920;-80
2023/01/27 16:12:51;;;;;;;;;;;;;;;;;;5089300;28;20009;-80
2023/01/27 16:15:16;;;;;;;;;;;;;;;;;;5062577;28;19912;-80
2023/01/27 16:17:41;;;;;;;;;;;;;;;;;;5085956;28;19909;-78
2023/01/27 16:20:07;;;;;;;;;;;;;;;;;;5091752;28;19912;-79
2023/01/27 16:22:32;;;;;;;;;;;;;;;;;;5076292;28;19916;-80
2023/01/27 16:24:58;;;;;;;;;;;;;;;;;;5069083;28;19913;-78
2023/01/27 16:27:23;;;;;;;;;;;;;;;;;;5066092;28;19947;-77
2023/01/27 16:29:48;;;;;;;;;;;;;;;;;;5088640;28;19912;-77
2023/01/27 16:32:15;;;;;;;;;;;;;;;;;;5087462;28;20315;-79
2023/01/27 16:34:41;;;;;;;;;;;;;;;;;;5093296;28;19912;-79
2023/01/27 16:37:06;;;;;;;;;;;;;;;;;;5069273;28;20287;-79
2023/01/27 16:39:31;;;;;;;;;;;;;;;;;;5067570;28;20337;-80
2023/01/27 16:41:56;;;;;;;;;;;;;;;;;;5089771;28;20019;-78
2023/01/27 16:44:21;;;;;;;;;;;;;;;;;;5068571;28;19916;-80
2023/01/27 16:46:46;;;;;;;;;;;;;;;;;;5090283;28;20010;-78
2023/01/27 16:49:12;;;;;;;;;;;;;;;;;;5073879;28;19951;-78
2023/01/27 16:51:37;;;;;;;;;;;;;;;;;;5094875;28;20295;-79
2023/01/27 16:54:02;;;;;;;;;;;;;;;;;;5092222;28;19912;-77
2023/01/27 16:56:27;;;;;;;;;;;;;;;;;;5082804;28;20050;-77
2023/01/27 16:58:52;;;;;;;;;;;;;;;;;;5061866;28;19967;-77
2023/01/27 17:01:17;;;;;;;;;;;;;;;;;;5084948;28;19912;-77
2023/01/27 17:03:43;;;;;;;;;;;;;;;;;;5088183;28;20001;-78